Registrering Status Plassering
LN-FAW Operativ ENSI - Ski 

Søk
Kontakt informasjon

Follo flyklubb.
Postboks 226, N-1401 Ski
Epost: post@follo-flyklubb.no

Tel: 41 63 65 21
Du er her: Vær

Vær

ENGM 270550Z 00000KT 9999 VCSH FEW048 SCT060 BKN090 07/03 Q0997 NOSIG
ENTO 270550Z 16008KT 9999 SCT020 BKN098 10/06 Q0997 NOSIG
ENRY 270520Z AUTO 13009KT 9999NDV BKN100/// 09/07 Q0998
ENSN 090850Z 20010G22KT 150V240 CAVOK 07/03 Q1000
ENCN 270550Z 24005KT 200V270 CAVOK 10/05 Q0996
ENZV 270550Z 33010KT 9999 FEW015 SCT025 BKN085 09/05 Q0998 NOSIG
ENFL 270520Z 35014KT 9999 FEW018 SCT035 07/02 Q0999
ENFG 220850Z 19007KT CAVOK 06/M03 Q1014
ENNO 270450Z VRB01KT 9999 FEW030 BKN100 08/04 Q0997
 

IPPC

yr.no

Storm